Terminal Aerodrome Forecast
Issued by NWS Key West, FL

Home | Current Version | Previous Version | Text Only | Print | Product List | Glossary On
Versions: 1 2 3 4 5 6 7 8 9 10 11 12 13 14 15 16 17 18 19 20 21 22 23 24 25 26 27
000
FTUS42 KKEY 011700
TAFEYW
TAF
KEYW 011720Z 0118/0218 24008KT P6SM SCT020
     FM012200 VRB06KT P6SM SCT020=

USA.gov is the U.S. government's official web portal to all federal, state and local government web resources and services.